Terminal Aerodrome Forecast
Issued by NWS Bismarck, ND

Home | Current Version | Previous Version | Graphics & Text | Print | Product List | Glossary On
Versions: 1 2 3 4 5 6 7 8 9 10 11 12 13 14 15 16 17
000
FTUS43 KBIS 170530
TAFISN
TAF
KISN 170530Z 1706/1806 21006KT P6SM VCSH SCT060 BKN090
      WS020/27035KT
     FM170900 24006KT P6SM BKN070 WS020/27040KT
     FM171700 27015KT P6SM SCT060
     FM180100 27006KT P6SM FEW070=

USA.gov is the U.S. government's official web portal to all federal, state and local government web resources and services.